Terminal Aerodrome Forecast
Issued by NWS

Current Version | Previous Version | Text Only | Print | Product List | Glossary Off
Versions: 1 2 3 4 5 6 7 8 9 10 11 12 13 14 15 16

000
FTUS41 KPBZ 261538 AAB
TAFMGW
TAF AMD
KMGW 261538Z 2616/2712 19006KT P6SM -SHRA BKN028
     FM261800 20008KT P6SM BKN080
     FM270200 18005KT P6SM VCSH BKN050
     FM270800 20007KT 5SM BR BKN025=

USA.gov is the U.S. government's official web portal to all federal, state and local government web resources and services.